sensor_id;sensor_type;location;lat;lon;timestamp;P1;durP1;ratioP1;P2;durP2;ratioP2
36379;SDS011;22411;53.016;18.632;2022-07-23T00:02:07;13.55;;;12.05;;
36379;SDS011;22411;53.016;18.632;2022-07-23T00:04:33;12.98;;;11.68;;
36379;SDS011;22411;53.016;18.632;2022-07-23T00:06:59;12.63;;;11.43;;
36379;SDS011;22411;53.016;18.632;2022-07-23T00:09:25;12.57;;;11.45;;
36379;SDS011;22411;53.016;18.632;2022-07-23T00:11:51;12.43;;;11.32;;
36379;SDS011;22411;53.016;18.632;2022-07-23T00:14:17;14.63;;;13.13;;
36379;SDS011;22411;53.016;18.632;2022-07-23T00:16:43;14.43;;;12.55;;
36379;SDS011;22411;53.016;18.632;2022-07-23T00:19:10;13.82;;;12.43;;
36379;SDS011;22411;53.016;18.632;2022-07-23T00:21:36;15.20;;;12.23;;
36379;SDS011;22411;53.016;18.632;2022-07-23T00:24:02;14.32;;;12.60;;
36379;SDS011;22411;53.016;18.632;2022-07-23T00:26:27;21.20;;;19.05;;
36379;SDS011;22411;53.016;18.632;2022-07-23T00:28:53;12.85;;;11.65;;
36379;SDS011;22411;53.016;18.632;2022-07-23T00:31:19;13.48;;;12.18;;
36379;SDS011;22411;53.016;18.632;2022-07-23T00:33:45;14.40;;;13.07;;
36379;SDS011;22411;53.016;18.632;2022-07-23T00:36:11;15.07;;;13.30;;
36379;SDS011;22411;53.016;18.632;2022-07-23T00:38:37;15.70;;;14.02;;
36379;SDS011;22411;53.016;18.632;2022-07-23T00:41:03;15.55;;;13.60;;
36379;SDS011;22411;53.016;18.632;2022-07-23T00:43:29;17.00;;;15.07;;
36379;SDS011;22411;53.016;18.632;2022-07-23T00:45:54;15.13;;;13.52;;
36379;SDS011;22411;53.016;18.632;2022-07-23T00:48:20;18.05;;;15.57;;
36379;SDS011;22411;53.016;18.632;2022-07-23T00:50:46;15.80;;;14.18;;
36379;SDS011;22411;53.016;18.632;2022-07-23T00:53:12;16.80;;;15.10;;
36379;SDS011;22411;53.016;18.632;2022-07-23T00:55:38;17.73;;;15.60;;
36379;SDS011;22411;53.016;18.632;2022-07-23T00:58:05;17.83;;;15.73;;
36379;SDS011;22411;53.016;18.632;2022-07-23T01:00:31;17.27;;;15.48;;
36379;SDS011;22411;53.016;18.632;2022-07-23T01:02:57;18.42;;;16.35;;
36379;SDS011;22411;53.016;18.632;2022-07-23T01:05:23;17.67;;;15.55;;
36379;SDS011;22411;53.016;18.632;2022-07-23T01:07:49;16.85;;;15.23;;
36379;SDS011;22411;53.016;18.632;2022-07-23T01:10:16;16.88;;;15.18;;
36379;SDS011;22411;53.016;18.632;2022-07-23T01:12:58;18.15;;;16.35;;
36379;SDS011;22411;53.016;18.632;2022-07-23T01:15:24;19.88;;;17.88;;
36379;SDS011;22411;53.016;18.632;2022-07-23T01:17:50;21.65;;;19.20;;
36379;SDS011;22411;53.016;18.632;2022-07-23T01:20:16;23.75;;;21.02;;
36379;SDS011;22411;53.016;18.632;2022-07-23T01:22:42;21.90;;;19.67;;
36379;SDS011;22411;53.016;18.632;2022-07-23T01:25:09;23.50;;;21.13;;
36379;SDS011;22411;53.016;18.632;2022-07-23T01:27:35;21.45;;;19.30;;
36379;SDS011;22411;53.016;18.632;2022-07-23T01:30:01;21.77;;;19.45;;
36379;SDS011;22411;53.016;18.632;2022-07-23T01:32:28;21.67;;;19.38;;
36379;SDS011;22411;53.016;18.632;2022-07-23T01:34:54;16.77;;;15.10;;
36379;SDS011;22411;53.016;18.632;2022-07-23T01:37:20;16.40;;;14.73;;
36379;SDS011;22411;53.016;18.632;2022-07-23T01:39:45;15.02;;;13.50;;
36379;SDS011;22411;53.016;18.632;2022-07-23T01:42:11;14.05;;;12.68;;
36379;SDS011;22411;53.016;18.632;2022-07-23T01:44:37;14.77;;;13.25;;
36379;SDS011;22411;53.016;18.632;2022-07-23T01:47:03;14.07;;;12.63;;
36379;SDS011;22411;53.016;18.632;2022-07-23T01:49:28;14.30;;;11.95;;
36379;SDS011;22411;53.016;18.632;2022-07-23T01:51:54;13.55;;;12.27;;
36379;SDS011;22411;53.016;18.632;2022-07-23T01:54:26;12.70;;;11.57;;
36379;SDS011;22411;53.016;18.632;2022-07-23T01:56:57;13.75;;;12.35;;
36379;SDS011;22411;53.016;18.632;2022-07-23T01:59:24;15.02;;;13.02;;
36379;SDS011;22411;53.016;18.632;2022-07-23T02:01:50;14.18;;;12.68;;
36379;SDS011;22411;53.016;18.632;2022-07-23T02:04:17;13.20;;;11.98;;
36379;SDS011;22411;53.016;18.632;2022-07-23T02:06:43;13.73;;;11.95;;
36379;SDS011;22411;53.016;18.632;2022-07-23T02:09:10;14.32;;;12.02;;
36379;SDS011;22411;53.016;18.632;2022-07-23T02:11:36;17.60;;;14.95;;
36379;SDS011;22411;53.016;18.632;2022-07-23T02:14:02;12.77;;;11.43;;
36379;SDS011;22411;53.016;18.632;2022-07-23T02:16:28;13.95;;;12.55;;
36379;SDS011;22411;53.016;18.632;2022-07-23T02:18:55;15.60;;;13.32;;
36379;SDS011;22411;53.016;18.632;2022-07-23T02:21:20;14.32;;;12.88;;
36379;SDS011;22411;53.016;18.632;2022-07-23T02:23:46;16.25;;;14.57;;
36379;SDS011;22411;53.016;18.632;2022-07-23T02:26:13;15.18;;;13.77;;
36379;SDS011;22411;53.016;18.632;2022-07-23T02:28:40;13.63;;;12.38;;
36379;SDS011;22411;53.016;18.632;2022-07-23T02:31:06;16.08;;;14.38;;
36379;SDS011;22411;53.016;18.632;2022-07-23T02:33:32;17.38;;;15.63;;
36379;SDS011;22411;53.016;18.632;2022-07-23T02:35:59;15.68;;;14.05;;
36379;SDS011;22411;53.016;18.632;2022-07-23T02:38:25;15.70;;;14.13;;
36379;SDS011;22411;53.016;18.632;2022-07-23T02:40:51;15.57;;;14.02;;
36379;SDS011;22411;53.016;18.632;2022-07-23T02:43:17;28.55;;;25.48;;
36379;SDS011;22411;53.016;18.632;2022-07-23T02:45:43;19.05;;;16.10;;
36379;SDS011;22411;53.016;18.632;2022-07-23T02:48:09;21.98;;;15.77;;
36379;SDS011;22411;53.016;18.632;2022-07-23T02:50:38;17.15;;;15.38;;
36379;SDS011;22411;53.016;18.632;2022-07-23T02:53:04;16.73;;;15.07;;
36379;SDS011;22411;53.016;18.632;2022-07-23T02:55:30;17.30;;;14.93;;
36379;SDS011;22411;53.016;18.632;2022-07-23T02:57:56;17.38;;;15.55;;
36379;SDS011;22411;53.016;18.632;2022-07-23T03:00:22;17.17;;;15.48;;
36379;SDS011;22411;53.016;18.632;2022-07-23T03:02:48;21.75;;;18.55;;
36379;SDS011;22411;53.016;18.632;2022-07-23T03:05:14;35.72;;;32.05;;
36379;SDS011;22411;53.016;18.632;2022-07-23T03:07:40;44.00;;;39.70;;
36379;SDS011;22411;53.016;18.632;2022-07-23T03:10:06;44.95;;;40.45;;
36379;SDS011;22411;53.016;18.632;2022-07-23T03:12:32;54.67;;;49.45;;
36379;SDS011;22411;53.016;18.632;2022-07-23T03:14:57;64.25;;;57.92;;
36379;SDS011;22411;53.016;18.632;2022-07-23T03:17:23;61.75;;;55.50;;
36379;SDS011;22411;53.016;18.632;2022-07-23T03:19:49;64.78;;;58.42;;
36379;SDS011;22411;53.016;18.632;2022-07-23T03:22:15;52.05;;;47.00;;
36379;SDS011;22411;53.016;18.632;2022-07-23T03:24:41;56.83;;;51.22;;
36379;SDS011;22411;53.016;18.632;2022-07-23T03:27:19;53.75;;;48.45;;
36379;SDS011;22411;53.016;18.632;2022-07-23T03:29:46;55.35;;;49.55;;
36379;SDS011;22411;53.016;18.632;2022-07-23T03:32:12;51.38;;;46.05;;
36379;SDS011;22411;53.016;18.632;2022-07-23T03:34:38;40.95;;;36.67;;
36379;SDS011;22411;53.016;18.632;2022-07-23T03:37:04;39.30;;;35.20;;
36379;SDS011;22411;53.016;18.632;2022-07-23T03:39:29;35.42;;;31.75;;
36379;SDS011;22411;53.016;18.632;2022-07-23T03:41:55;38.20;;;34.35;;
36379;SDS011;22411;53.016;18.632;2022-07-23T03:44:22;37.42;;;33.53;;
36379;SDS011;22411;53.016;18.632;2022-07-23T03:46:48;33.17;;;29.70;;
36379;SDS011;22411;53.016;18.632;2022-07-23T03:49:13;30.77;;;27.35;;
36379;SDS011;22411;53.016;18.632;2022-07-23T03:51:39;34.97;;;31.27;;
36379;SDS011;22411;53.016;18.632;2022-07-23T03:54:05;36.33;;;32.63;;
36379;SDS011;22411;53.016;18.632;2022-07-23T03:56:31;41.08;;;36.75;;
36379;SDS011;22411;53.016;18.632;2022-07-23T03:58:56;35.35;;;31.52;;
36379;SDS011;22411;53.016;18.632;2022-07-23T04:01:22;34.47;;;31.08;;
36379;SDS011;22411;53.016;18.632;2022-07-23T04:03:48;32.33;;;28.90;;
36379;SDS011;22411;53.016;18.632;2022-07-23T04:06:14;33.03;;;29.55;;
36379;SDS011;22411;53.016;18.632;2022-07-23T04:08:40;29.77;;;26.67;;
36379;SDS011;22411;53.016;18.632;2022-07-23T04:11:05;29.92;;;26.83;;
36379;SDS011;22411;53.016;18.632;2022-07-23T04:13:31;27.92;;;25.10;;
36379;SDS011;22411;53.016;18.632;2022-07-23T04:15:58;25.50;;;22.92;;
36379;SDS011;22411;53.016;18.632;2022-07-23T04:18:24;29.30;;;23.30;;
36379;SDS011;22411;53.016;18.632;2022-07-23T04:20:50;22.20;;;20.00;;
36379;SDS011;22411;53.016;18.632;2022-07-23T04:23:16;20.58;;;18.55;;
36379;SDS011;22411;53.016;18.632;2022-07-23T04:25:42;24.95;;;20.83;;
36379;SDS011;22411;53.016;18.632;2022-07-23T04:28:08;20.10;;;18.15;;
36379;SDS011;22411;53.016;18.632;2022-07-23T04:30:34;21.38;;;19.20;;
36379;SDS011;22411;53.016;18.632;2022-07-23T04:33:00;19.73;;;17.77;;
36379;SDS011;22411;53.016;18.632;2022-07-23T04:35:26;19.17;;;17.20;;
36379;SDS011;22411;53.016;18.632;2022-07-23T04:37:52;21.08;;;17.88;;
36379;SDS011;22411;53.016;18.632;2022-07-23T04:40:19;19.67;;;17.67;;
36379;SDS011;22411;53.016;18.632;2022-07-23T04:42:45;19.00;;;17.10;;
36379;SDS011;22411;53.016;18.632;2022-07-23T04:45:11;21.35;;;19.20;;
36379;SDS011;22411;53.016;18.632;2022-07-23T04:47:37;21.00;;;19.00;;
36379;SDS011;22411;53.016;18.632;2022-07-23T04:50:03;20.30;;;18.17;;
36379;SDS011;22411;53.016;18.632;2022-07-23T04:52:29;23.52;;;21.05;;
36379;SDS011;22411;53.016;18.632;2022-07-23T04:54:55;21.52;;;19.27;;
36379;SDS011;22411;53.016;18.632;2022-07-23T04:57:21;22.77;;;20.45;;
36379;SDS011;22411;53.016;18.632;2022-07-23T04:59:46;23.42;;;20.95;;
36379;SDS011;22411;53.016;18.632;2022-07-23T05:02:12;23.25;;;19.95;;
36379;SDS011;22411;53.016;18.632;2022-07-23T05:04:39;24.85;;;21.10;;
36379;SDS011;22411;53.016;18.632;2022-07-23T05:07:08;23.07;;;20.80;;
36379;SDS011;22411;53.016;18.632;2022-07-23T05:09:34;24.67;;;22.15;;
36379;SDS011;22411;53.016;18.632;2022-07-23T05:12:00;25.42;;;21.67;;
36379;SDS011;22411;53.016;18.632;2022-07-23T05:14:26;22.52;;;20.33;;
36379;SDS011;22411;53.016;18.632;2022-07-23T05:16:54;22.27;;;20.17;;
36379;SDS011;22411;53.016;18.632;2022-07-23T05:19:21;23.58;;;21.38;;
36379;SDS011;22411;53.016;18.632;2022-07-23T05:21:47;22.10;;;19.98;;
36379;SDS011;22411;53.016;18.632;2022-07-23T05:24:13;23.75;;;21.13;;
36379;SDS011;22411;53.016;18.632;2022-07-23T05:26:40;22.13;;;20.02;;
36379;SDS011;22411;53.016;18.632;2022-07-23T05:29:06;22.35;;;20.15;;
36379;SDS011;22411;53.016;18.632;2022-07-23T05:31:32;20.95;;;18.88;;
36379;SDS011;22411;53.016;18.632;2022-07-23T05:33:59;20.02;;;17.98;;
36379;SDS011;22411;53.016;18.632;2022-07-23T05:36:25;20.83;;;18.63;;
36379;SDS011;22411;53.016;18.632;2022-07-23T05:38:52;19.38;;;17.48;;
36379;SDS011;22411;53.016;18.632;2022-07-23T05:41:21;16.48;;;14.77;;
36379;SDS011;22411;53.016;18.632;2022-07-23T05:43:48;18.13;;;16.42;;
36379;SDS011;22411;53.016;18.632;2022-07-23T05:46:13;17.35;;;15.25;;
36379;SDS011;22411;53.016;18.632;2022-07-23T05:48:39;15.93;;;14.45;;
36379;SDS011;22411;53.016;18.632;2022-07-23T05:51:09;16.02;;;14.55;;
36379;SDS011;22411;53.016;18.632;2022-07-23T05:53:35;14.05;;;12.73;;
36379;SDS011;22411;53.016;18.632;2022-07-23T05:56:01;14.02;;;12.73;;
36379;SDS011;22411;53.016;18.632;2022-07-23T05:58:27;13.57;;;12.35;;
36379;SDS011;22411;53.016;18.632;2022-07-23T06:00:52;13.00;;;11.80;;
36379;SDS011;22411;53.016;18.632;2022-07-23T06:03:18;14.55;;;13.15;;
36379;SDS011;22411;53.016;18.632;2022-07-23T06:05:46;15.50;;;13.00;;
36379;SDS011;22411;53.016;18.632;2022-07-23T06:08:12;14.90;;;13.40;;
36379;SDS011;22411;53.016;18.632;2022-07-23T06:10:39;14.95;;;13.45;;
36379;SDS011;22411;53.016;18.632;2022-07-23T06:13:06;12.95;;;11.82;;
36379;SDS011;22411;53.016;18.632;2022-07-23T06:15:33;13.85;;;12.40;;
36379;SDS011;22411;53.016;18.632;2022-07-23T06:18:00;14.30;;;12.80;;
36379;SDS011;22411;53.016;18.632;2022-07-23T06:20:26;12.55;;;11.30;;
36379;SDS011;22411;53.016;18.632;2022-07-23T06:22:52;12.43;;;11.32;;
36379;SDS011;22411;53.016;18.632;2022-07-23T06:25:18;13.38;;;10.98;;
36379;SDS011;22411;53.016;18.632;2022-07-23T06:27:45;11.55;;;10.40;;
36379;SDS011;22411;53.016;18.632;2022-07-23T06:30:12;11.90;;;10.88;;
36379;SDS011;22411;53.016;18.632;2022-07-23T06:32:38;11.63;;;10.57;;
36379;SDS011;22411;53.016;18.632;2022-07-23T06:35:04;11.88;;;10.63;;
36379;SDS011;22411;53.016;18.632;2022-07-23T06:37:30;12.48;;;11.32;;
36379;SDS011;22411;53.016;18.632;2022-07-23T06:39:56;13.25;;;11.18;;
36379;SDS011;22411;53.016;18.632;2022-07-23T06:42:22;12.15;;;10.85;;
36379;SDS011;22411;53.016;18.632;2022-07-23T06:44:48;15.18;;;11.50;;
36379;SDS011;22411;53.016;18.632;2022-07-23T06:47:14;11.63;;;10.63;;
36379;SDS011;22411;53.016;18.632;2022-07-23T06:49:39;11.95;;;10.75;;
36379;SDS011;22411;53.016;18.632;2022-07-23T06:52:06;12.70;;;11.43;;
36379;SDS011;22411;53.016;18.632;2022-07-23T06:54:33;12.52;;;11.32;;
36379;SDS011;22411;53.016;18.632;2022-07-23T06:57:00;13.23;;;12.02;;
36379;SDS011;22411;53.016;18.632;2022-07-23T06:59:26;13.95;;;12.52;;
36379;SDS011;22411;53.016;18.632;2022-07-23T07:01:52;11.13;;;10.02;;
36379;SDS011;22411;53.016;18.632;2022-07-23T07:04:18;11.40;;;10.20;;
36379;SDS011;22411;53.016;18.632;2022-07-23T07:06:44;14.40;;;9.43;;
36379;SDS011;22411;53.016;18.632;2022-07-23T07:09:10;8.82;;;7.88;;
36379;SDS011;22411;53.016;18.632;2022-07-23T07:11:38;10.10;;;9.10;;
36379;SDS011;22411;53.016;18.632;2022-07-23T07:14:04;9.55;;;8.75;;
36379;SDS011;22411;53.016;18.632;2022-07-23T07:16:31;9.32;;;8.50;;
36379;SDS011;22411;53.016;18.632;2022-07-23T07:18:57;9.80;;;9.00;;
36379;SDS011;22411;53.016;18.632;2022-07-23T07:21:25;9.43;;;8.07;;
36379;SDS011;22411;53.016;18.632;2022-07-23T07:23:51;7.88;;;7.18;;
36379;SDS011;22411;53.016;18.632;2022-07-23T07:26:17;8.85;;;8.15;;
36379;SDS011;22411;53.016;18.632;2022-07-23T07:28:43;8.45;;;7.72;;
36379;SDS011;22411;53.016;18.632;2022-07-23T07:31:09;8.55;;;7.15;;
36379;SDS011;22411;53.016;18.632;2022-07-23T07:33:35;7.78;;;7.18;;
36379;SDS011;22411;53.016;18.632;2022-07-23T07:36:01;7.45;;;6.60;;
36379;SDS011;22411;53.016;18.632;2022-07-23T07:38:27;6.10;;;5.50;;
36379;SDS011;22411;53.016;18.632;2022-07-23T07:40:54;7.22;;;6.63;;
36379;SDS011;22411;53.016;18.632;2022-07-23T07:43:21;6.90;;;6.30;;
36379;SDS011;22411;53.016;18.632;2022-07-23T07:45:47;6.28;;;5.85;;
36379;SDS011;22411;53.016;18.632;2022-07-23T07:48:13;6.40;;;5.72;;
36379;SDS011;22411;53.016;18.632;2022-07-23T07:50:40;6.13;;;5.70;;
36379;SDS011;22411;53.016;18.632;2022-07-23T07:53:07;8.70;;;5.82;;
36379;SDS011;22411;53.016;18.632;2022-07-23T07:55:34;6.32;;;5.68;;
36379;SDS011;22411;53.016;18.632;2022-07-23T07:58:00;6.10;;;5.32;;
36379;SDS011;22411;53.016;18.632;2022-07-23T08:00:27;7.53;;;6.00;;
36379;SDS011;22411;53.016;18.632;2022-07-23T08:02:55;5.53;;;5.13;;
36379;SDS011;22411;53.016;18.632;2022-07-23T08:05:25;5.03;;;4.63;;
36379;SDS011;22411;53.016;18.632;2022-07-23T08:07:53;5.55;;;5.05;;
36379;SDS011;22411;53.016;18.632;2022-07-23T08:10:19;5.05;;;4.65;;
36379;SDS011;22411;53.016;18.632;2022-07-23T08:12:46;5.40;;;4.38;;
36379;SDS011;22411;53.016;18.632;2022-07-23T08:15:17;5.80;;;4.35;;
36379;SDS011;22411;53.016;18.632;2022-07-23T08:17:47;4.63;;;4.20;;
36379;SDS011;22411;53.016;18.632;2022-07-23T08:20:14;5.15;;;4.70;;
36379;SDS011;22411;53.016;18.632;2022-07-23T08:22:49;4.85;;;4.32;;
36379;SDS011;22411;53.016;18.632;2022-07-23T08:25:20;5.90;;;4.05;;
36379;SDS011;22411;53.016;18.632;2022-07-23T08:27:49;4.30;;;3.90;;
36379;SDS011;22411;53.016;18.632;2022-07-23T08:30:16;4.75;;;2.67;;
36379;SDS011;22411;53.016;18.632;2022-07-23T08:35:23;2.38;;;1.58;;
36379;SDS011;22411;53.016;18.632;2022-07-23T08:37:50;3.03;;;2.50;;
36379;SDS011;22411;53.016;18.632;2022-07-23T08:40:18;2.92;;;2.72;;
36379;SDS011;22411;53.016;18.632;2022-07-23T08:42:46;3.20;;;3.00;;
36379;SDS011;22411;53.016;18.632;2022-07-23T08:45:19;3.33;;;3.03;;
36379;SDS011;22411;53.016;18.632;2022-07-23T08:47:50;2.92;;;2.10;;
36379;SDS011;22411;53.016;18.632;2022-07-23T08:50:21;3.17;;;2.85;;
36379;SDS011;22411;53.016;18.632;2022-07-23T08:52:48;2.65;;;2.45;;
36379;SDS011;22411;53.016;18.632;2022-07-23T08:55:18;3.40;;;3.10;;
36379;SDS011;22411;53.016;18.632;2022-07-23T08:57:48;2.55;;;2.10;;
36379;SDS011;22411;53.016;18.632;2022-07-23T09:00:17;3.13;;;2.90;;
36379;SDS011;22411;53.016;18.632;2022-07-23T09:02:44;3.03;;;2.40;;
36379;SDS011;22411;53.016;18.632;2022-07-23T09:05:13;2.28;;;2.08;;
36379;SDS011;22411;53.016;18.632;2022-07-23T09:11:01;2.67;;;2.47;;
36379;SDS011;22411;53.016;18.632;2022-07-23T09:13:33;2.35;;;2.15;;
36379;SDS011;22411;53.016;18.632;2022-07-23T09:16:03;3.13;;;2.40;;
36379;SDS011;22411;53.016;18.632;2022-07-23T09:21:14;2.88;;;2.08;;
36379;SDS011;22411;53.016;18.632;2022-07-23T09:23:57;3.65;;;3.05;;
36379;SDS011;22411;53.016;18.632;2022-07-23T09:26:28;3.08;;;2.78;;
36379;SDS011;22411;53.016;18.632;2022-07-23T09:29:07;3.13;;;2.83;;
36379;SDS011;22411;53.016;18.632;2022-07-23T09:34:16;5.38;;;2.30;;
36379;SDS011;22411;53.016;18.632;2022-07-23T09:36:51;2.83;;;2.40;;
36379;SDS011;22411;53.016;18.632;2022-07-23T09:39:32;2.90;;;2.70;;
36379;SDS011;22411;53.016;18.632;2022-07-23T09:42:20;2.97;;;2.72;;
36379;SDS011;22411;53.016;18.632;2022-07-23T09:44:49;4.55;;;3.00;;
36379;SDS011;22411;53.016;18.632;2022-07-23T09:47:17;3.90;;;2.70;;
36379;SDS011;22411;53.016;18.632;2022-07-23T09:50:04;2.83;;;2.63;;
36379;SDS011;22411;53.016;18.632;2022-07-23T09:52:36;2.75;;;2.55;;
36379;SDS011;22411;53.016;18.632;2022-07-23T09:55:10;3.55;;;3.28;;
36379;SDS011;22411;53.016;18.632;2022-07-23T09:57:37;3.17;;;2.83;;
36379;SDS011;22411;53.016;18.632;2022-07-23T10:00:08;3.10;;;2.90;;
36379;SDS011;22411;53.016;18.632;2022-07-23T10:02:38;2.75;;;2.40;;
36379;SDS011;22411;53.016;18.632;2022-07-23T10:05:05;5.00;;;3.28;;
36379;SDS011;22411;53.016;18.632;2022-07-23T10:07:33;3.28;;;2.97;;
36379;SDS011;22411;53.016;18.632;2022-07-23T10:10:04;3.10;;;2.88;;
36379;SDS011;22411;53.016;18.632;2022-07-23T10:12:31;2.65;;;2.40;;
36379;SDS011;22411;53.016;18.632;2022-07-23T10:15:07;4.30;;;2.45;;
36379;SDS011;22411;53.016;18.632;2022-07-23T10:17:35;2.60;;;2.28;;
36379;SDS011;22411;53.016;18.632;2022-07-23T10:20:02;2.78;;;2.47;;
36379;SDS011;22411;53.016;18.632;2022-07-23T10:25:10;3.88;;;3.08;;
36379;SDS011;22411;53.016;18.632;2022-07-23T10:36:51;3.47;;;3.17;;
36379;SDS011;22411;53.016;18.632;2022-07-23T10:39:28;3.55;;;3.25;;
36379;SDS011;22411;53.016;18.632;2022-07-23T10:42:09;3.92;;;3.60;;
36379;SDS011;22411;53.016;18.632;2022-07-23T10:44:44;3.88;;;3.47;;
36379;SDS011;22411;53.016;18.632;2022-07-23T10:47:12;6.88;;;3.53;;
36379;SDS011;22411;53.016;18.632;2022-07-23T10:49:51;3.88;;;3.58;;
36379;SDS011;22411;53.016;18.632;2022-07-23T10:52:23;4.90;;;4.50;;
36379;SDS011;22411;53.016;18.632;2022-07-23T10:54:51;8.75;;;5.32;;
36379;SDS011;22411;53.016;18.632;2022-07-23T10:57:27;6.28;;;5.28;;
36379;SDS011;22411;53.016;18.632;2022-07-23T11:02:26;11.32;;;5.60;;
36379;SDS011;22411;53.016;18.632;2022-07-23T11:04:56;5.80;;;5.20;;
36379;SDS011;22411;53.016;18.632;2022-07-23T11:07:26;7.35;;;6.63;;
36379;SDS011;22411;53.016;18.632;2022-07-23T11:09:54;10.43;;;7.05;;
36379;SDS011;22411;53.016;18.632;2022-07-23T11:25:09;10.68;;;9.68;;
36379;SDS011;22411;53.016;18.632;2022-07-23T11:28:07;11.55;;;10.52;;
36379;SDS011;22411;53.016;18.632;2022-07-23T11:35:36;13.32;;;12.15;;
36379;SDS011;22411;53.016;18.632;2022-07-23T11:38:08;12.65;;;11.40;;
36379;SDS011;22411;53.016;18.632;2022-07-23T11:40:37;12.25;;;11.00;;
36379;SDS011;22411;53.016;18.632;2022-07-23T11:43:05;12.98;;;11.77;;
36379;SDS011;22411;53.016;18.632;2022-07-23T11:45:42;13.40;;;11.05;;
36379;SDS011;22411;53.016;18.632;2022-07-23T11:48:19;11.55;;;10.55;;
36379;SDS011;22411;53.016;18.632;2022-07-23T11:50:51;13.05;;;11.75;;
36379;SDS011;22411;53.016;18.632;2022-07-23T11:53:24;12.48;;;11.13;;
36379;SDS011;22411;53.016;18.632;2022-07-23T11:55:52;13.52;;;12.30;;
36379;SDS011;22411;53.016;18.632;2022-07-23T11:58:19;12.45;;;11.40;;
36379;SDS011;22411;53.016;18.632;2022-07-23T12:00:46;12.55;;;11.30;;
36379;SDS011;22411;53.016;18.632;2022-07-23T12:03:12;10.27;;;9.35;;
36379;SDS011;22411;53.016;18.632;2022-07-23T12:05:39;8.88;;;8.18;;
36379;SDS011;22411;53.016;18.632;2022-07-23T12:08:06;10.07;;;9.02;;
36379;SDS011;22411;53.016;18.632;2022-07-23T12:13:13;9.23;;;8.30;;
36379;SDS011;22411;53.016;18.632;2022-07-23T12:18:13;9.70;;;8.88;;
36379;SDS011;22411;53.016;18.632;2022-07-23T12:20:42;11.15;;;7.90;;
36379;SDS011;22411;53.016;18.632;2022-07-23T12:23:12;8.03;;;7.33;;
36379;SDS011;22411;53.016;18.632;2022-07-23T12:25:41;7.65;;;7.05;;
36379;SDS011;22411;53.016;18.632;2022-07-23T12:28:13;7.57;;;6.97;;
36379;SDS011;22411;53.016;18.632;2022-07-23T12:33:13;8.00;;;7.30;;
36379;SDS011;22411;53.016;18.632;2022-07-23T12:35:49;7.78;;;7.18;;
36379;SDS011;22411;53.016;18.632;2022-07-23T12:38:19;10.13;;;8.25;;
36379;SDS011;22411;53.016;18.632;2022-07-23T12:40:50;7.82;;;7.18;;
36379;SDS011;22411;53.016;18.632;2022-07-23T12:45:48;7.93;;;7.20;;
36379;SDS011;22411;53.016;18.632;2022-07-23T12:50:58;10.38;;;7.18;;
36379;SDS011;22411;53.016;18.632;2022-07-23T13:06:31;7.60;;;6.78;;
36379;SDS011;22411;53.016;18.632;2022-07-23T13:09:01;8.80;;;7.90;;
36379;SDS011;22411;53.016;18.632;2022-07-23T13:11:29;9.25;;;8.45;;
36379;SDS011;22411;53.016;18.632;2022-07-23T13:13:55;9.13;;;8.20;;
36379;SDS011;22411;53.016;18.632;2022-07-23T13:16:22;9.65;;;8.77;;
36379;SDS011;22411;53.016;18.632;2022-07-23T13:18:48;12.55;;;11.45;;
36379;SDS011;22411;53.016;18.632;2022-07-23T13:21:13;9.82;;;8.95;;
36379;SDS011;22411;53.016;18.632;2022-07-23T13:23:40;9.43;;;8.43;;
36379;SDS011;22411;53.016;18.632;2022-07-23T13:26:07;10.32;;;9.27;;
36379;SDS011;22411;53.016;18.632;2022-07-23T13:28:33;10.35;;;9.45;;
36379;SDS011;22411;53.016;18.632;2022-07-23T13:30:59;9.43;;;8.52;;
36379;SDS011;22411;53.016;18.632;2022-07-23T13:33:26;10.07;;;9.05;;
36379;SDS011;22411;53.016;18.632;2022-07-23T13:35:53;11.48;;;9.88;;
36379;SDS011;22411;53.016;18.632;2022-07-23T13:38:20;9.88;;;8.98;;
36379;SDS011;22411;53.016;18.632;2022-07-23T13:40:48;9.73;;;8.90;;
36379;SDS011;22411;53.016;18.632;2022-07-23T13:43:16;11.27;;;10.18;;
36379;SDS011;22411;53.016;18.632;2022-07-23T13:45:45;10.80;;;9.65;;
36379;SDS011;22411;53.016;18.632;2022-07-23T13:48:12;10.13;;;9.00;;
36379;SDS011;22411;53.016;18.632;2022-07-23T13:50:39;11.27;;;10.18;;
36379;SDS011;22411;53.016;18.632;2022-07-23T13:53:08;9.80;;;9.00;;
36379;SDS011;22411;53.016;18.632;2022-07-23T13:55:36;7.93;;;7.32;;
36379;SDS011;22411;53.016;18.632;2022-07-23T13:58:03;9.20;;;8.18;;
36379;SDS011;22411;53.016;18.632;2022-07-23T14:00:31;9.27;;;8.38;;
36379;SDS011;22411;53.016;18.632;2022-07-23T14:02:58;7.55;;;6.85;;
36379;SDS011;22411;53.016;18.632;2022-07-23T14:05:25;12.35;;;7.90;;
36379;SDS011;22411;53.016;18.632;2022-07-23T14:07:51;7.97;;;7.25;;
36379;SDS011;22411;53.016;18.632;2022-07-23T14:10:18;8.43;;;7.63;;
36379;SDS011;22411;53.016;18.632;2022-07-23T14:12:46;8.35;;;7.65;;
36379;SDS011;22411;53.016;18.632;2022-07-23T14:15:14;8.77;;;6.70;;
36379;SDS011;22411;53.016;18.632;2022-07-23T14:17:41;7.32;;;6.57;;
36379;SDS011;22411;53.016;18.632;2022-07-23T14:20:09;6.95;;;6.35;;
36379;SDS011;22411;53.016;18.632;2022-07-23T14:22:36;7.20;;;6.60;;
36379;SDS011;22411;53.016;18.632;2022-07-23T14:25:03;10.23;;;6.22;;
36379;SDS011;22411;53.016;18.632;2022-07-23T14:27:29;5.53;;;5.03;;
36379;SDS011;22411;53.016;18.632;2022-07-23T14:29:55;5.40;;;4.90;;
36379;SDS011;22411;53.016;18.632;2022-07-23T14:32:22;6.78;;;6.20;;
36379;SDS011;22411;53.016;18.632;2022-07-23T14:34:48;5.70;;;5.30;;
36379;SDS011;22411;53.016;18.632;2022-07-23T14:37:15;5.15;;;4.68;;
36379;SDS011;22411;53.016;18.632;2022-07-23T14:39:42;6.28;;;5.72;;
36379;SDS011;22411;53.016;18.632;2022-07-23T14:42:08;6.45;;;5.85;;
36379;SDS011;22411;53.016;18.632;2022-07-23T14:44:35;5.90;;;5.50;;
36379;SDS011;22411;53.016;18.632;2022-07-23T14:47:03;5.28;;;4.88;;
36379;SDS011;22411;53.016;18.632;2022-07-23T14:49:31;7.93;;;6.18;;
36379;SDS011;22411;53.016;18.632;2022-07-23T14:51:57;8.75;;;7.35;;
36379;SDS011;22411;53.016;18.632;2022-07-23T14:54:24;5.93;;;5.53;;
36379;SDS011;22411;53.016;18.632;2022-07-23T14:56:52;5.90;;;5.40;;
36379;SDS011;22411;53.016;18.632;2022-07-23T14:59:20;6.40;;;5.88;;
36379;SDS011;22411;53.016;18.632;2022-07-23T15:01:49;5.30;;;4.80;;
36379;SDS011;22411;53.016;18.632;2022-07-23T15:04:15;6.05;;;5.55;;
36379;SDS011;22411;53.016;18.632;2022-07-23T15:06:41;6.68;;;6.03;;
36379;SDS011;22411;53.016;18.632;2022-07-23T15:09:08;5.97;;;5.00;;
36379;SDS011;22411;53.016;18.632;2022-07-23T15:11:34;5.82;;;5.25;;
36379;SDS011;22411;53.016;18.632;2022-07-23T15:14:02;5.30;;;4.90;;
36379;SDS011;22411;53.016;18.632;2022-07-23T15:16:29;5.60;;;5.20;;
36379;SDS011;22411;53.016;18.632;2022-07-23T15:18:55;5.47;;;5.05;;
36379;SDS011;22411;53.016;18.632;2022-07-23T15:21:22;4.72;;;4.43;;
36379;SDS011;22411;53.016;18.632;2022-07-23T15:23:48;8.95;;;5.47;;
36379;SDS011;22411;53.016;18.632;2022-07-23T15:26:14;5.78;;;5.20;;
36379;SDS011;22411;53.016;18.632;2022-07-23T15:28:41;5.43;;;4.88;;
36379;SDS011;22411;53.016;18.632;2022-07-23T15:31:07;6.78;;;6.07;;
36379;SDS011;22411;53.016;18.632;2022-07-23T15:33:33;5.53;;;5.00;;